Flight Track Log - Related Links

Times and Time Zones

All times are in EDT time to prevent confusion due to time zone crossing. See the UCA4783 flight status page for this flight to view local times or setup timezone preferences in your user account.

Time Position Orientation Groundspeed Altitude Reporting Facility
EDT Latitude Longitude Course Direction KTS MPH feet Rate Location/Type
Sun 04:41:00 PM 41.0830 -74.1008 North  Level Estimated
Sun 04:42:00 PM 41.1388 -74.0911 North  Level Estimated
Sun 04:43:00 PM 41.1946 -74.0813 North  Level Estimated
Sun 04:44:00 PM 41.2504 -74.0715 North  Level Estimated
Sun 04:45:00 PM 41.3061 -74.0617 North  Level Estimated
Sun 04:46:00 PM 41.3619 -74.0519 North  Level Estimated
Sun 04:47:00 PM 41.4177 -74.0420 North  Level Estimated
Sun 04:48:00 PM 41.4735 -74.0322 North  Level Estimated
Sun 04:49:00 PM 41.5293 -74.0223 North  Level Estimated
Sun 04:50:00 PM 41.5850 -74.0124 North  Level Estimated
Sun 04:51:00 PM 41.6408 -74.0025 North  Level Estimated
Sun 04:52:00 PM 41.6966 -73.9926 North  Level Estimated
Sun 04:53:00 PM 41.7524 -73.9827 North  Level Estimated
Sun 04:54:00 PM 41.8082 -73.9727 North  Level Estimated
Sun 04:55:00 PM 41.8639 -73.9627 North  Level Estimated
Sun 04:56:00 PM 41.9197 -73.9527 North  Level Estimated
Sun 04:57:00 PM 41.9755 -73.9427 North  Level Estimated
Sun 04:58:00 PM 42.0312 -73.9327 North  Level Estimated
Sun 04:59:00 PM 42.0870 -73.9226 North  Level Estimated
Sun 05:00:00 PM 42.1428 -73.9126 North  Level Estimated
Sun 05:01:00 PM 42.1986 -73.9025 North  Level Estimated
Sun 05:02:00 PM 42.2543 -73.8924 North  Level Estimated
Sun 05:03:00 PM 42.3101 -73.8823 North  Level Estimated
Sun 05:04:00 PM 42.3659 -73.8721 North  Level Estimated
Sun 05:05:00 PM 42.4216 -73.8620 North  Level Estimated
Sun 05:06:00 PM 42.4774 -73.8518 North  Level Estimated
Sun 05:07:00 PM 42.5332 -73.8416 North  Level Estimated
Sun 05:08:00 PM 42.5889 -73.8314 North  Level Estimated
Sun 05:09:00 PM 42.6447 -73.8212 North  Level Estimated
Sun 05:10:00 PM 42.7004 -73.8109 North  Level Estimated
Sun 05:11:00 PM 42.7491 -73.8020 North  Level Estimated
Sun 05:12:00 PM 42.7491 -73.8020 304° West  Level Estimated
Sun 05:13:00 PM 42.7491 -73.8020 304° West  Level Estimated
Sun 05:14:00 PM 42.7491 -73.8020 304° West  Level Estimated
Sun 05:15:00 PM 42.7491 -73.8020 304° West  Level Estimated
Sun 05:16:00 PM 42.7491 -73.8020 304° West  Level Estimated
Sun 05:17:00 PM 42.7491 -73.8020 304° West  Level Estimated
Sun 05:18:00 PM 42.7491 -73.8020 304° West  Level Estimated
Sun 05:19:00 PM 42.7491 -73.8020 304° West  Level Estimated
Sun 05:20:00 PM 42.7491 -73.8020 304° West  Level Estimated
Sun 05:21:00 PM 42.7491 -73.8020 304° West  Level Estimated
Sun 05:22:00 PM 42.7491 -73.8020 304° West  Level Estimated
Sun 05:23:00 PM 42.7491 -73.8020 304° West  Level Estimated
Sun 05:24:00 PM 42.7491 -73.8020 304° West  Level Estimated
Sun 05:25:00 PM 42.7491 -73.8020 304° West  Level Estimated
Sun 05:26:00 PM 42.7491 -73.8020 304° West  Level Estimated
Sun 05:27:00 PM 42.7491 -73.8020 304° West  Level Estimated

Login

Don't have an account? Register now (free) for customized features, flight alerts, and more!